UD19 weather

Public forecast

Using degrees Celsius for public forecast. Weather courtesy of forecast.io.

Closest aviation weather report (METAR) to Casarsa della Delizia Air Base

Closest report is Rivolto Air Base, 9.8 nm (18.2 km) E. Retrieved 2020/08/14 05:55 UTC (1 hour ago):

LIPI 140555Z 35006KT 9999 FEW090 23/18 Q1012 RMK SCT SCT150 VIS MIN 9999 WIND THR06 02007KT WIND THR24 01005KT BLU

Closest aviation forecast (TAF) to Casarsa della Delizia Air Base

Forecast is more than 12 hours old.

Closest forecast is Rivolto Air Base, 9.8 nm (18.2 km) E. Retrieved 2020/01/23 12:24 UTC (7 months ago):

TAF TAF LIPI 231100Z 2312/2324 06010KT CAVOK